sensor_id;sensor_type;location;lat;lon;timestamp;P1;durP1;ratioP1;P2;durP2;ratioP2
39400;SDS011;54391;50.000;7.360;2023-04-06T00:01:01;8.98;;;4.68;;
39400;SDS011;54391;50.000;7.360;2023-04-06T00:03:29;8.70;;;5.25;;
39400;SDS011;54391;50.000;7.360;2023-04-06T00:05:56;11.02;;;4.82;;
39400;SDS011;54391;50.000;7.360;2023-04-06T00:08:25;10.13;;;5.20;;
39400;SDS011;54391;50.000;7.360;2023-04-06T00:10:53;10.85;;;4.60;;
39400;SDS011;54391;50.000;7.360;2023-04-06T00:13:20;11.20;;;5.18;;
39400;SDS011;54391;50.000;7.360;2023-04-06T00:15:48;7.88;;;4.57;;
39400;SDS011;54391;50.000;7.360;2023-04-06T00:18:15;10.05;;;5.75;;
39400;SDS011;54391;50.000;7.360;2023-04-06T00:20:43;9.43;;;4.75;;
39400;SDS011;54391;50.000;7.360;2023-04-06T00:23:10;9.00;;;5.22;;
39400;SDS011;54391;50.000;7.360;2023-04-06T00:25:39;7.07;;;4.22;;
39400;SDS011;54391;50.000;7.360;2023-04-06T00:28:06;8.35;;;4.93;;
39400;SDS011;54391;50.000;7.360;2023-04-06T00:30:34;14.48;;;4.97;;
39400;SDS011;54391;50.000;7.360;2023-04-06T00:33:01;9.10;;;5.22;;
39400;SDS011;54391;50.000;7.360;2023-04-06T00:35:29;9.20;;;4.32;;
39400;SDS011;54391;50.000;7.360;2023-04-06T00:37:56;9.10;;;5.13;;
39400;SDS011;54391;50.000;7.360;2023-04-06T00:40:23;9.02;;;4.70;;
39400;SDS011;54391;50.000;7.360;2023-04-06T00:42:54;9.27;;;5.10;;
39400;SDS011;54391;50.000;7.360;2023-04-06T00:45:21;7.45;;;4.35;;
39400;SDS011;54391;50.000;7.360;2023-04-06T00:47:49;8.10;;;5.15;;
39400;SDS011;54391;50.000;7.360;2023-04-06T00:50:17;10.00;;;4.50;;
39400;SDS011;54391;50.000;7.360;2023-04-06T00:52:45;10.27;;;4.88;;
39400;SDS011;54391;50.000;7.360;2023-04-06T00:55:13;9.48;;;4.80;;
39400;SDS011;54391;50.000;7.360;2023-04-06T00:57:42;7.82;;;5.13;;
39400;SDS011;54391;50.000;7.360;2023-04-06T01:00:11;9.77;;;4.93;;
39400;SDS011;54391;50.000;7.360;2023-04-06T01:02:42;8.65;;;4.65;;
39400;SDS011;54391;50.000;7.360;2023-04-06T01:05:13;11.00;;;5.35;;
39400;SDS011;54391;50.000;7.360;2023-04-06T01:07:49;10.63;;;5.57;;
39400;SDS011;54391;50.000;7.360;2023-04-06T01:10:24;11.60;;;4.90;;
39400;SDS011;54391;50.000;7.360;2023-04-06T01:12:57;8.25;;;4.90;;
39400;SDS011;54391;50.000;7.360;2023-04-06T01:15:44;9.05;;;4.75;;
39400;SDS011;54391;50.000;7.360;2023-04-06T01:18:19;10.20;;;5.13;;
39400;SDS011;54391;50.000;7.360;2023-04-06T01:20:59;10.60;;;5.07;;
39400;SDS011;54391;50.000;7.360;2023-04-06T01:23:29;10.27;;;4.47;;
39400;SDS011;54391;50.000;7.360;2023-04-06T01:25:56;9.18;;;4.70;;
39400;SDS011;54391;50.000;7.360;2023-04-06T01:28:24;10.80;;;4.85;;
39400;SDS011;54391;50.000;7.360;2023-04-06T01:31:00;8.50;;;5.10;;
39400;SDS011;54391;50.000;7.360;2023-04-06T01:33:42;8.15;;;4.88;;
39400;SDS011;54391;50.000;7.360;2023-04-06T01:36:14;8.48;;;4.70;;
39400;SDS011;54391;50.000;7.360;2023-04-06T01:38:45;8.63;;;4.20;;
39400;SDS011;54391;50.000;7.360;2023-04-06T01:41:15;11.27;;;5.32;;
39400;SDS011;54391;50.000;7.360;2023-04-06T01:43:47;10.85;;;4.90;;
39400;SDS011;54391;50.000;7.360;2023-04-06T01:46:15;9.18;;;4.35;;
39400;SDS011;54391;50.000;7.360;2023-04-06T01:48:44;9.35;;;4.85;;
39400;SDS011;54391;50.000;7.360;2023-04-06T01:51:41;8.98;;;4.50;;
39400;SDS011;54391;50.000;7.360;2023-04-06T01:54:13;10.20;;;5.47;;
39400;SDS011;54391;50.000;7.360;2023-04-06T01:56:55;8.88;;;5.25;;
39400;SDS011;54391;50.000;7.360;2023-04-06T01:59:30;11.70;;;5.70;;
39400;SDS011;54391;50.000;7.360;2023-04-06T02:02:02;9.38;;;5.25;;
39400;SDS011;54391;50.000;7.360;2023-04-06T02:04:31;9.27;;;5.30;;
39400;SDS011;54391;50.000;7.360;2023-04-06T02:09:36;10.88;;;5.57;;
39400;SDS011;54391;50.000;7.360;2023-04-06T02:12:07;10.18;;;5.00;;
39400;SDS011;54391;50.000;7.360;2023-04-06T02:14:35;8.05;;;4.78;;
39400;SDS011;54391;50.000;7.360;2023-04-06T02:17:03;11.27;;;5.40;;
39400;SDS011;54391;50.000;7.360;2023-04-06T02:19:30;9.85;;;5.25;;
39400;SDS011;54391;50.000;7.360;2023-04-06T02:21:58;11.80;;;4.90;;
39400;SDS011;54391;50.000;7.360;2023-04-06T02:24:27;8.63;;;5.00;;
39400;SDS011;54391;50.000;7.360;2023-04-06T02:26:56;8.93;;;5.05;;
39400;SDS011;54391;50.000;7.360;2023-04-06T02:29:23;9.85;;;5.40;;
39400;SDS011;54391;50.000;7.360;2023-04-06T02:31:51;10.60;;;5.03;;
39400;SDS011;54391;50.000;7.360;2023-04-06T02:34:19;8.15;;;5.03;;
39400;SDS011;54391;50.000;7.360;2023-04-06T02:36:49;15.57;;;5.68;;
39400;SDS011;54391;50.000;7.360;2023-04-06T02:39:17;11.40;;;5.53;;
39400;SDS011;54391;50.000;7.360;2023-04-06T02:41:46;8.55;;;5.18;;
39400;SDS011;54391;50.000;7.360;2023-04-06T02:44:19;8.80;;;4.75;;
39400;SDS011;54391;50.000;7.360;2023-04-06T02:46:47;12.90;;;6.05;;
39400;SDS011;54391;50.000;7.360;2023-04-06T02:49:14;11.15;;;5.47;;
39400;SDS011;54391;50.000;7.360;2023-04-06T02:51:42;10.43;;;5.30;;
39400;SDS011;54391;50.000;7.360;2023-04-06T02:54:18;10.98;;;5.18;;
39400;SDS011;54391;50.000;7.360;2023-04-06T02:56:45;10.23;;;5.00;;
39400;SDS011;54391;50.000;7.360;2023-04-06T02:59:13;10.77;;;6.03;;
39400;SDS011;54391;50.000;7.360;2023-04-06T03:01:48;12.52;;;5.57;;
39400;SDS011;54391;50.000;7.360;2023-04-06T03:04:16;15.32;;;5.57;;
39400;SDS011;54391;50.000;7.360;2023-04-06T03:06:44;11.90;;;6.13;;
39400;SDS011;54391;50.000;7.360;2023-04-06T03:09:22;10.80;;;5.70;;
39400;SDS011;54391;50.000;7.360;2023-04-06T03:11:50;11.40;;;5.70;;
39400;SDS011;54391;50.000;7.360;2023-04-06T03:14:17;9.98;;;5.03;;
39400;SDS011;54391;50.000;7.360;2023-04-06T03:16:49;9.23;;;5.10;;
39400;SDS011;54391;50.000;7.360;2023-04-06T03:19:20;13.05;;;5.90;;
39400;SDS011;54391;50.000;7.360;2023-04-06T03:21:48;10.85;;;6.25;;
39400;SDS011;54391;50.000;7.360;2023-04-06T03:24:17;10.40;;;5.47;;
39400;SDS011;54391;50.000;7.360;2023-04-06T03:26:44;10.40;;;5.82;;
39400;SDS011;54391;50.000;7.360;2023-04-06T03:29:13;10.18;;;5.53;;
39400;SDS011;54391;50.000;7.360;2023-04-06T03:31:40;10.75;;;5.30;;
39400;SDS011;54391;50.000;7.360;2023-04-06T03:34:35;10.73;;;5.45;;
39400;SDS011;54391;50.000;7.360;2023-04-06T03:37:03;11.90;;;5.32;;
39400;SDS011;54391;50.000;7.360;2023-04-06T03:39:31;11.52;;;5.68;;
39400;SDS011;54391;50.000;7.360;2023-04-06T03:41:59;10.65;;;5.90;;
39400;SDS011;54391;50.000;7.360;2023-04-06T03:44:33;12.93;;;5.90;;
39400;SDS011;54391;50.000;7.360;2023-04-06T03:47:00;11.73;;;5.53;;
39400;SDS011;54391;50.000;7.360;2023-04-06T03:49:29;10.73;;;5.72;;
39400;SDS011;54391;50.000;7.360;2023-04-06T03:51:58;13.32;;;5.90;;
39400;SDS011;54391;50.000;7.360;2023-04-06T03:54:28;15.82;;;5.55;;
39400;SDS011;54391;50.000;7.360;2023-04-06T03:56:55;9.82;;;4.97;;
39400;SDS011;54391;50.000;7.360;2023-04-06T03:59:25;11.00;;;5.95;;
39400;SDS011;54391;50.000;7.360;2023-04-06T04:01:53;10.25;;;4.90;;
39400;SDS011;54391;50.000;7.360;2023-04-06T04:04:20;10.70;;;5.43;;
39400;SDS011;54391;50.000;7.360;2023-04-06T04:06:47;11.88;;;6.25;;
39400;SDS011;54391;50.000;7.360;2023-04-06T04:09:17;12.38;;;5.82;;
39400;SDS011;54391;50.000;7.360;2023-04-06T04:11:44;10.45;;;5.47;;
39400;SDS011;54391;50.000;7.360;2023-04-06T04:14:11;11.35;;;5.88;;
39400;SDS011;54391;50.000;7.360;2023-04-06T04:16:39;11.77;;;5.32;;
39400;SDS011;54391;50.000;7.360;2023-04-06T04:19:07;10.50;;;6.20;;
39400;SDS011;54391;50.000;7.360;2023-04-06T04:21:41;10.43;;;6.68;;
39400;SDS011;54391;50.000;7.360;2023-04-06T04:24:13;13.30;;;5.72;;
39400;SDS011;54391;50.000;7.360;2023-04-06T04:26:41;10.63;;;6.32;;
39400;SDS011;54391;50.000;7.360;2023-04-06T04:29:09;14.00;;;6.25;;
39400;SDS011;54391;50.000;7.360;2023-04-06T04:31:37;17.05;;;7.88;;
39400;SDS011;54391;50.000;7.360;2023-04-06T04:34:12;14.57;;;7.35;;
39400;SDS011;54391;50.000;7.360;2023-04-06T04:36:40;15.57;;;7.05;;
39400;SDS011;54391;50.000;7.360;2023-04-06T04:39:11;14.55;;;6.47;;
39400;SDS011;54391;50.000;7.360;2023-04-06T04:41:45;14.05;;;6.25;;
39400;SDS011;54391;50.000;7.360;2023-04-06T04:44:12;15.48;;;6.60;;
39400;SDS011;54391;50.000;7.360;2023-04-06T04:46:41;14.02;;;7.22;;
39400;SDS011;54391;50.000;7.360;2023-04-06T04:49:10;16.05;;;7.15;;
39400;SDS011;54391;50.000;7.360;2023-04-06T04:51:39;13.52;;;6.38;;
39400;SDS011;54391;50.000;7.360;2023-04-06T04:54:10;15.35;;;7.45;;
39400;SDS011;54391;50.000;7.360;2023-04-06T04:56:39;13.70;;;6.38;;
39400;SDS011;54391;50.000;7.360;2023-04-06T04:59:31;10.38;;;6.25;;
39400;SDS011;54391;50.000;7.360;2023-04-06T05:02:04;13.73;;;6.40;;
39400;SDS011;54391;50.000;7.360;2023-04-06T05:04:42;12.43;;;6.15;;
39400;SDS011;54391;50.000;7.360;2023-04-06T05:07:15;11.27;;;6.18;;
39400;SDS011;54391;50.000;7.360;2023-04-06T05:09:44;14.13;;;7.07;;
39400;SDS011;54391;50.000;7.360;2023-04-06T05:12:11;12.85;;;7.28;;
39400;SDS011;54391;50.000;7.360;2023-04-06T05:14:51;17.15;;;7.00;;
39400;SDS011;54391;50.000;7.360;2023-04-06T05:17:21;19.48;;;6.90;;
39400;SDS011;54391;50.000;7.360;2023-04-06T05:19:49;10.27;;;5.80;;
39400;SDS011;54391;50.000;7.360;2023-04-06T05:22:21;12.27;;;6.03;;
39400;SDS011;54391;50.000;7.360;2023-04-06T05:24:59;11.70;;;5.82;;
39400;SDS011;54391;50.000;7.360;2023-04-06T05:27:27;13.38;;;6.10;;
39400;SDS011;54391;50.000;7.360;2023-04-06T05:29:57;11.50;;;6.50;;
39400;SDS011;54391;50.000;7.360;2023-04-06T05:32:26;11.07;;;6.70;;
39400;SDS011;54391;50.000;7.360;2023-04-06T05:34:54;12.20;;;6.50;;
39400;SDS011;54391;50.000;7.360;2023-04-06T05:37:22;18.05;;;6.70;;
39400;SDS011;54391;50.000;7.360;2023-04-06T05:39:50;16.67;;;7.32;;
39400;SDS011;54391;50.000;7.360;2023-04-06T05:42:18;14.02;;;6.90;;
39400;SDS011;54391;50.000;7.360;2023-04-06T05:44:58;19.77;;;6.95;;
39400;SDS011;54391;50.000;7.360;2023-04-06T05:47:27;10.05;;;5.47;;
39400;SDS011;54391;50.000;7.360;2023-04-06T05:52:34;12.80;;;5.90;;
39400;SDS011;54391;50.000;7.360;2023-04-06T05:55:02;13.50;;;6.20;;
39400;SDS011;54391;50.000;7.360;2023-04-06T05:57:30;12.43;;;6.22;;
39400;SDS011;54391;50.000;7.360;2023-04-06T05:59:59;10.75;;;6.10;;
39400;SDS011;54391;50.000;7.360;2023-04-06T06:02:37;12.95;;;5.88;;
39400;SDS011;54391;50.000;7.360;2023-04-06T06:07:41;11.18;;;6.22;;
39400;SDS011;54391;50.000;7.360;2023-04-06T06:10:10;13.45;;;6.22;;
39400;SDS011;54391;50.000;7.360;2023-04-06T06:12:38;12.25;;;5.80;;
39400;SDS011;54391;50.000;7.360;2023-04-06T06:15:08;11.63;;;6.05;;
39400;SDS011;54391;50.000;7.360;2023-04-06T06:17:41;13.13;;;6.38;;
39400;SDS011;54391;50.000;7.360;2023-04-06T06:20:10;21.55;;;6.65;;
39400;SDS011;54391;50.000;7.360;2023-04-06T06:22:38;11.88;;;5.80;;
39400;SDS011;54391;50.000;7.360;2023-04-06T06:25:09;10.80;;;6.07;;
39400;SDS011;54391;50.000;7.360;2023-04-06T06:27:37;13.75;;;6.55;;
39400;SDS011;54391;50.000;7.360;2023-04-06T06:30:05;11.20;;;5.88;;
39400;SDS011;54391;50.000;7.360;2023-04-06T06:32:38;12.43;;;5.97;;
39400;SDS011;54391;50.000;7.360;2023-04-06T06:35:06;13.45;;;6.30;;
39400;SDS011;54391;50.000;7.360;2023-04-06T06:37:34;13.02;;;6.22;;
39400;SDS011;54391;50.000;7.360;2023-04-06T06:40:02;10.85;;;5.65;;
39400;SDS011;54391;50.000;7.360;2023-04-06T06:42:32;9.20;;;5.15;;
39400;SDS011;54391;50.000;7.360;2023-04-06T06:45:19;11.27;;;5.70;;
39400;SDS011;54391;50.000;7.360;2023-04-06T06:47:47;12.75;;;7.15;;
39400;SDS011;54391;50.000;7.360;2023-04-06T06:50:14;15.75;;;7.10;;
39400;SDS011;54391;50.000;7.360;2023-04-06T06:52:41;12.65;;;6.05;;
39400;SDS011;54391;50.000;7.360;2023-04-06T06:55:10;11.25;;;5.68;;
39400;SDS011;54391;50.000;7.360;2023-04-06T06:57:37;11.05;;;5.60;;
39400;SDS011;54391;50.000;7.360;2023-04-06T07:00:08;14.13;;;6.78;;
39400;SDS011;54391;50.000;7.360;2023-04-06T07:02:39;10.63;;;6.53;;
39400;SDS011;54391;50.000;7.360;2023-04-06T07:05:06;13.27;;;6.35;;
39400;SDS011;54391;50.000;7.360;2023-04-06T07:07:34;12.35;;;6.47;;
39400;SDS011;54391;50.000;7.360;2023-04-06T07:10:02;11.93;;;5.85;;
39400;SDS011;54391;50.000;7.360;2023-04-06T07:12:30;8.80;;;5.57;;
39400;SDS011;54391;50.000;7.360;2023-04-06T07:14:58;11.75;;;6.03;;
39400;SDS011;54391;50.000;7.360;2023-04-06T07:17:25;10.13;;;5.65;;
39400;SDS011;54391;50.000;7.360;2023-04-06T07:19:54;12.82;;;6.53;;
39400;SDS011;54391;50.000;7.360;2023-04-06T07:22:22;11.35;;;6.35;;
39400;SDS011;54391;50.000;7.360;2023-04-06T07:24:49;10.68;;;6.15;;
39400;SDS011;54391;50.000;7.360;2023-04-06T07:27:16;15.07;;;5.93;;
39400;SDS011;54391;50.000;7.360;2023-04-06T07:29:44;10.30;;;6.40;;
39400;SDS011;54391;50.000;7.360;2023-04-06T07:32:12;10.95;;;6.10;;
39400;SDS011;54391;50.000;7.360;2023-04-06T07:34:40;13.77;;;6.60;;
39400;SDS011;54391;50.000;7.360;2023-04-06T07:37:09;10.20;;;6.13;;
39400;SDS011;54391;50.000;7.360;2023-04-06T07:39:36;12.95;;;6.32;;
39400;SDS011;54391;50.000;7.360;2023-04-06T07:42:04;11.38;;;6.20;;
39400;SDS011;54391;50.000;7.360;2023-04-06T07:44:31;13.95;;;6.63;;
39400;SDS011;54391;50.000;7.360;2023-04-06T07:46:59;14.05;;;7.35;;
39400;SDS011;54391;50.000;7.360;2023-04-06T07:49:27;12.15;;;6.93;;
39400;SDS011;54391;50.000;7.360;2023-04-06T07:51:55;14.70;;;7.13;;
39400;SDS011;54391;50.000;7.360;2023-04-06T07:54:24;13.32;;;7.28;;
39400;SDS011;54391;50.000;7.360;2023-04-06T07:56:52;12.23;;;6.90;;
39400;SDS011;54391;50.000;7.360;2023-04-06T07:59:19;14.68;;;6.90;;
39400;SDS011;54391;50.000;7.360;2023-04-06T08:01:47;15.27;;;6.95;;
39400;SDS011;54391;50.000;7.360;2023-04-06T08:04:14;13.80;;;6.85;;
39400;SDS011;54391;50.000;7.360;2023-04-06T08:06:42;15.20;;;7.15;;
39400;SDS011;54391;50.000;7.360;2023-04-06T08:09:09;13.57;;;7.25;;
39400;SDS011;54391;50.000;7.360;2023-04-06T08:11:38;13.13;;;7.25;;
39400;SDS011;54391;50.000;7.360;2023-04-06T08:14:05;11.50;;;6.00;;
39400;SDS011;54391;50.000;7.360;2023-04-06T08:16:33;13.48;;;6.65;;
39400;SDS011;54391;50.000;7.360;2023-04-06T08:19:00;13.88;;;7.10;;
39400;SDS011;54391;50.000;7.360;2023-04-06T08:21:27;13.25;;;6.93;;
39400;SDS011;54391;50.000;7.360;2023-04-06T08:23:55;15.23;;;7.00;;
39400;SDS011;54391;50.000;7.360;2023-04-06T08:26:23;14.02;;;6.32;;
39400;SDS011;54391;50.000;7.360;2023-04-06T08:28:52;13.57;;;6.97;;
39400;SDS011;54391;50.000;7.360;2023-04-06T08:31:19;13.52;;;6.88;;
39400;SDS011;54391;50.000;7.360;2023-04-06T08:33:46;14.60;;;6.60;;
39400;SDS011;54391;50.000;7.360;2023-04-06T08:36:14;12.90;;;5.90;;
39400;SDS011;54391;50.000;7.360;2023-04-06T08:38:45;11.93;;;6.35;;
39400;SDS011;54391;50.000;7.360;2023-04-06T08:41:14;14.60;;;6.75;;
39400;SDS011;54391;50.000;7.360;2023-04-06T08:43:43;14.25;;;7.18;;
39400;SDS011;54391;50.000;7.360;2023-04-06T08:46:14;12.30;;;6.75;;
39400;SDS011;54391;50.000;7.360;2023-04-06T08:48:42;13.00;;;6.97;;
39400;SDS011;54391;50.000;7.360;2023-04-06T08:51:10;15.15;;;6.68;;
39400;SDS011;54391;50.000;7.360;2023-04-06T08:53:38;13.10;;;6.05;;
39400;SDS011;54391;50.000;7.360;2023-04-06T08:56:05;12.43;;;6.13;;
39400;SDS011;54391;50.000;7.360;2023-04-06T08:58:37;12.68;;;6.22;;
39400;SDS011;54391;50.000;7.360;2023-04-06T09:01:07;11.45;;;6.53;;
39400;SDS011;54391;50.000;7.360;2023-04-06T09:03:38;16.02;;;6.60;;
39400;SDS011;54391;50.000;7.360;2023-04-06T09:06:06;14.73;;;7.15;;
39400;SDS011;54391;50.000;7.360;2023-04-06T09:08:35;12.07;;;6.15;;
39400;SDS011;54391;50.000;7.360;2023-04-06T09:11:05;13.32;;;6.60;;
39400;SDS011;54391;50.000;7.360;2023-04-06T09:13:43;14.02;;;6.65;;
39400;SDS011;54391;50.000;7.360;2023-04-06T09:16:11;12.23;;;6.55;;
39400;SDS011;54391;50.000;7.360;2023-04-06T09:18:40;16.83;;;6.97;;
39400;SDS011;54391;50.000;7.360;2023-04-06T09:21:08;15.00;;;5.63;;
39400;SDS011;54391;50.000;7.360;2023-04-06T09:23:36;11.32;;;5.95;;
39400;SDS011;54391;50.000;7.360;2023-04-06T09:26:07;13.30;;;6.78;;
39400;SDS011;54391;50.000;7.360;2023-04-06T09:28:43;13.52;;;6.88;;
39400;SDS011;54391;50.000;7.360;2023-04-06T09:31:12;16.93;;;7.83;;
39400;SDS011;54391;50.000;7.360;2023-04-06T09:33:42;10.98;;;5.47;;
39400;SDS011;54391;50.000;7.360;2023-04-06T09:36:11;12.18;;;6.25;;
39400;SDS011;54391;50.000;7.360;2023-04-06T09:38:51;16.00;;;6.68;;
39400;SDS011;54391;50.000;7.360;2023-04-06T09:41:23;11.35;;;5.60;;
39400;SDS011;54391;50.000;7.360;2023-04-06T09:43:51;12.00;;;6.00;;
39400;SDS011;54391;50.000;7.360;2023-04-06T09:46:27;13.32;;;6.00;;
39400;SDS011;54391;50.000;7.360;2023-04-06T09:49:00;10.77;;;5.40;;
39400;SDS011;54391;50.000;7.360;2023-04-06T09:51:30;10.90;;;5.53;;
39400;SDS011;54391;50.000;7.360;2023-04-06T09:53:58;11.05;;;6.75;;
39400;SDS011;54391;50.000;7.360;2023-04-06T09:56:28;13.00;;;6.07;;
39400;SDS011;54391;50.000;7.360;2023-04-06T09:59:13;10.55;;;5.68;;
39400;SDS011;54391;50.000;7.360;2023-04-06T10:01:44;12.02;;;6.90;;
39400;SDS011;54391;50.000;7.360;2023-04-06T10:04:21;16.25;;;7.25;;
39400;SDS011;54391;50.000;7.360;2023-04-06T10:06:59;11.80;;;5.93;;
39400;SDS011;54391;50.000;7.360;2023-04-06T10:09:28;11.27;;;5.53;;
39400;SDS011;54391;50.000;7.360;2023-04-06T10:12:02;11.25;;;5.65;;
39400;SDS011;54391;50.000;7.360;2023-04-06T10:14:30;18.40;;;6.20;;
39400;SDS011;54391;50.000;7.360;2023-04-06T10:17:00;10.95;;;5.70;;
39400;SDS011;54391;50.000;7.360;2023-04-06T10:19:32;10.10;;;5.82;;
39400;SDS011;54391;50.000;7.360;2023-04-06T10:22:05;13.02;;;5.60;;
39400;SDS011;54391;50.000;7.360;2023-04-06T10:24:35;17.10;;;6.05;;
39400;SDS011;54391;50.000;7.360;2023-04-06T10:27:03;10.98;;;5.85;;
39400;SDS011;54391;50.000;7.360;2023-04-06T10:29:41;10.30;;;5.43;;
39400;SDS011;54391;50.000;7.360;2023-04-06T10:32:10;13.52;;;6.18;;
39400;SDS011;54391;50.000;7.360;2023-04-06T10:34:39;10.35;;;6.13;;
39400;SDS011;54391;50.000;7.360;2023-04-06T10:37:13;18.67;;;6.47;;
39400;SDS011;54391;50.000;7.360;2023-04-06T10:39:47;11.15;;;5.60;;
39400;SDS011;54391;50.000;7.360;2023-04-06T10:42:23;12.90;;;5.80;;
39400;SDS011;54391;50.000;7.360;2023-04-06T10:44:51;15.52;;;6.30;;
39400;SDS011;54391;50.000;7.360;2023-04-06T10:47:18;13.38;;;5.57;;
39400;SDS011;54391;50.000;7.360;2023-04-06T10:49:47;14.70;;;5.50;;
39400;SDS011;54391;50.000;7.360;2023-04-06T10:52:15;10.60;;;5.72;;
39400;SDS011;54391;50.000;7.360;2023-04-06T10:54:42;10.63;;;5.10;;
39400;SDS011;54391;50.000;7.360;2023-04-06T10:57:10;11.52;;;5.70;;
39400;SDS011;54391;50.000;7.360;2023-04-06T10:59:41;12.30;;;6.80;;
39400;SDS011;54391;50.000;7.360;2023-04-06T11:02:18;17.77;;;6.03;;
39400;SDS011;54391;50.000;7.360;2023-04-06T11:04:55;11.32;;;5.40;;
39400;SDS011;54391;50.000;7.360;2023-04-06T11:09:50;16.08;;;6.35;;
39400;SDS011;54391;50.000;7.360;2023-04-06T11:12:22;12.32;;;6.57;;
39400;SDS011;54391;50.000;7.360;2023-04-06T11:14:54;11.77;;;6.30;;
39400;SDS011;54391;50.000;7.360;2023-04-06T11:17:27;12.77;;;5.65;;
39400;SDS011;54391;50.000;7.360;2023-04-06T11:19:56;12.38;;;5.45;;
39400;SDS011;54391;50.000;7.360;2023-04-06T11:22:25;13.43;;;5.70;;
39400;SDS011;54391;50.000;7.360;2023-04-06T11:24:52;12.82;;;5.57;;
39400;SDS011;54391;50.000;7.360;2023-04-06T11:27:30;12.43;;;6.10;;
39400;SDS011;54391;50.000;7.360;2023-04-06T11:29:58;12.00;;;6.15;;
39400;SDS011;54391;50.000;7.360;2023-04-06T11:32:27;14.18;;;6.20;;
39400;SDS011;54391;50.000;7.360;2023-04-06T11:34:57;13.73;;;6.45;;
39400;SDS011;54391;50.000;7.360;2023-04-06T11:37:27;10.85;;;5.72;;
39400;SDS011;54391;50.000;7.360;2023-04-06T11:39:55;14.82;;;6.45;;
39400;SDS011;54391;50.000;7.360;2023-04-06T11:42:23;12.90;;;5.65;;
39400;SDS011;54391;50.000;7.360;2023-04-06T11:44:51;13.13;;;6.03;;
39400;SDS011;54391;50.000;7.360;2023-04-06T11:47:26;12.00;;;5.30;;
39400;SDS011;54391;50.000;7.360;2023-04-06T11:49:54;15.20;;;6.43;;
39400;SDS011;54391;50.000;7.360;2023-04-06T11:52:27;15.07;;;5.93;;
39400;SDS011;54391;50.000;7.360;2023-04-06T11:54:55;12.38;;;6.35;;
39400;SDS011;54391;50.000;7.360;2023-04-06T11:57:23;12.95;;;5.63;;
39400;SDS011;54391;50.000;7.360;2023-04-06T11:59:50;19.48;;;7.60;;
39400;SDS011;54391;50.000;7.360;2023-04-06T12:02:18;14.60;;;7.65;;
39400;SDS011;54391;50.000;7.360;2023-04-06T12:04:45;15.50;;;7.05;;
39400;SDS011;54391;50.000;7.360;2023-04-06T12:07:13;14.55;;;6.97;;
39400;SDS011;54391;50.000;7.360;2023-04-06T12:09:42;13.88;;;6.95;;
39400;SDS011;54391;50.000;7.360;2023-04-06T12:12:09;15.18;;;6.55;;
39400;SDS011;54391;50.000;7.360;2023-04-06T12:14:37;13.15;;;5.78;;
39400;SDS011;54391;50.000;7.360;2023-04-06T12:17:04;16.98;;;6.35;;
39400;SDS011;54391;50.000;7.360;2023-04-06T12:19:32;11.20;;;5.65;;
39400;SDS011;54391;50.000;7.360;2023-04-06T12:21:59;13.98;;;7.05;;
39400;SDS011;54391;50.000;7.360;2023-04-06T12:24:27;12.85;;;5.60;;
39400;SDS011;54391;50.000;7.360;2023-04-06T12:26:56;15.57;;;6.78;;
39400;SDS011;54391;50.000;7.360;2023-04-06T12:29:24;16.73;;;6.95;;
39400;SDS011;54391;50.000;7.360;2023-04-06T12:31:51;15.00;;;7.28;;
39400;SDS011;54391;50.000;7.360;2023-04-06T12:34:18;12.60;;;6.97;;
39400;SDS011;54391;50.000;7.360;2023-04-06T12:36:46;13.65;;;6.03;;
39400;SDS011;54391;50.000;7.360;2023-04-06T12:39:13;11.57;;;6.32;;
39400;SDS011;54391;50.000;7.360;2023-04-06T12:41:41;14.15;;;6.07;;
39400;SDS011;54391;50.000;7.360;2023-04-06T12:44:09;14.07;;;6.13;;
39400;SDS011;54391;50.000;7.360;2023-04-06T12:46:37;11.57;;;6.05;;
39400;SDS011;54391;50.000;7.360;2023-04-06T12:49:04;11.38;;;5.70;;
39400;SDS011;54391;50.000;7.360;2023-04-06T12:51:32;13.57;;;6.53;;
39400;SDS011;54391;50.000;7.360;2023-04-06T12:54:00;14.27;;;6.15;;
39400;SDS011;54391;50.000;7.360;2023-04-06T12:56:27;11.95;;;7.03;;
39400;SDS011;54391;50.000;7.360;2023-04-06T12:58:55;12.25;;;5.78;;
39400;SDS011;54391;50.000;7.360;2023-04-06T13:01:24;14.52;;;6.65;;
39400;SDS011;54391;50.000;7.360;2023-04-06T13:03:53;15.88;;;6.25;;
39400;SDS011;54391;50.000;7.360;2023-04-06T13:06:20;12.27;;;5.80;;
39400;SDS011;54391;50.000;7.360;2023-04-06T13:08:47;13.18;;;6.60;;
39400;SDS011;54391;50.000;7.360;2023-04-06T13:11:16;10.07;;;5.07;;
39400;SDS011;54391;50.000;7.360;2023-04-06T13:13:45;11.15;;;5.15;;
39400;SDS011;54391;50.000;7.360;2023-04-06T13:16:13;9.75;;;5.25;;
39400;SDS011;54391;50.000;7.360;2023-04-06T13:18:42;12.07;;;5.75;;
39400;SDS011;54391;50.000;7.360;2023-04-06T13:21:09;10.43;;;5.20;;
39400;SDS011;54391;50.000;7.360;2023-04-06T13:23:40;13.65;;;6.93;;
39400;SDS011;54391;50.000;7.360;2023-04-06T13:26:08;19.85;;;7.00;;
39400;SDS011;54391;50.000;7.360;2023-04-06T13:28:36;13.63;;;5.80;;
39400;SDS011;54391;50.000;7.360;2023-04-06T13:31:04;16.10;;;6.75;;
39400;SDS011;54391;50.000;7.360;2023-04-06T13:33:32;17.65;;;10.98;;
39400;SDS011;54391;50.000;7.360;2023-04-06T13:36:01;16.30;;;6.93;;
39400;SDS011;54391;50.000;7.360;2023-04-06T13:38:28;15.02;;;6.20;;
39400;SDS011;54391;50.000;7.360;2023-04-06T13:40:56;13.95;;;6.85;;
39400;SDS011;54391;50.000;7.360;2023-04-06T13:43:24;12.40;;;5.75;;
39400;SDS011;54391;50.000;7.360;2023-04-06T13:45:52;11.25;;;6.28;;
39400;SDS011;54391;50.000;7.360;2023-04-06T13:48:21;12.80;;;4.30;;
39400;SDS011;54391;50.000;7.360;2023-04-06T13:50:48;15.00;;;5.15;;
39400;SDS011;54391;50.000;7.360;2023-04-06T13:53:17;11.07;;;5.15;;
39400;SDS011;54391;50.000;7.360;2023-04-06T13:55:51;10.32;;;4.53;;
39400;SDS011;54391;50.000;7.360;2023-04-06T13:58:19;14.32;;;5.70;;
39400;SDS011;54391;50.000;7.360;2023-04-06T14:00:47;10.90;;;5.50;;
39400;SDS011;54391;50.000;7.360;2023-04-06T14:03:14;12.25;;;6.53;;
39400;SDS011;54391;50.000;7.360;2023-04-06T14:05:42;9.55;;;5.18;;
39400;SDS011;54391;50.000;7.360;2023-04-06T14:08:09;12.23;;;5.63;;
39400;SDS011;54391;50.000;7.360;2023-04-06T14:10:38;16.40;;;6.25;;
39400;SDS011;54391;50.000;7.360;2023-04-06T14:13:07;11.05;;;6.32;;
39400;SDS011;54391;50.000;7.360;2023-04-06T14:15:34;11.57;;;5.88;;
39400;SDS011;54391;50.000;7.360;2023-04-06T14:18:03;8.95;;;5.20;;
39400;SDS011;54391;50.000;7.360;2023-04-06T14:20:31;11.93;;;5.97;;
39400;SDS011;54391;50.000;7.360;2023-04-06T14:22:59;11.13;;;5.35;;
39400;SDS011;54391;50.000;7.360;2023-04-06T14:25:27;11.20;;;5.60;;
39400;SDS011;54391;50.000;7.360;2023-04-06T14:27:58;10.77;;;5.25;;
39400;SDS011;54391;50.000;7.360;2023-04-06T14:30:25;10.90;;;5.88;;
39400;SDS011;54391;50.000;7.360;2023-04-06T14:32:56;12.90;;;6.10;;
39400;SDS011;54391;50.000;7.360;2023-04-06T14:35:23;16.52;;;6.28;;
39400;SDS011;54391;50.000;7.360;2023-04-06T14:37:53;11.00;;;5.70;;
39400;SDS011;54391;50.000;7.360;2023-04-06T14:40:22;8.75;;;4.63;;
39400;SDS011;54391;50.000;7.360;2023-04-06T14:42:50;11.77;;;5.78;;
39400;SDS011;54391;50.000;7.360;2023-04-06T14:45:18;10.98;;;5.38;;
39400;SDS011;54391;50.000;7.360;2023-04-06T14:47:46;10.20;;;5.32;;
39400;SDS011;54391;50.000;7.360;2023-04-06T14:50:14;17.50;;;6.18;;
39400;SDS011;54391;50.000;7.360;2023-04-06T14:52:41;11.40;;;4.82;;
39400;SDS011;54391;50.000;7.360;2023-04-06T14:55:08;12.10;;;5.53;;
39400;SDS011;54391;50.000;7.360;2023-04-06T14:57:36;9.75;;;5.07;;
39400;SDS011;54391;50.000;7.360;2023-04-06T15:00:03;14.43;;;5.88;;